createdAt,value
2022-12-01T00:01:59.000Z,111.10
2022-12-01T00:11:59.000Z,111.40
2022-12-01T00:21:58.000Z,114.20
2022-12-01T00:31:58.000Z,116.20
2022-12-01T00:31:58.000Z,116.20
2022-12-01T00:41:58.000Z,112.80
2022-12-01T00:51:58.000Z,112.40
2022-12-01T01:01:58.000Z,114.10
2022-12-01T01:11:58.000Z,115.20
2022-12-01T01:21:58.000Z,116.90
2022-12-01T01:31:58.000Z,111.80
2022-12-01T01:41:58.000Z,109.20
2022-12-01T01:51:58.000Z,107.40
2022-12-01T02:01:58.000Z,105.20
2022-12-01T02:11:57.000Z,98.80
2022-12-01T02:21:57.000Z,91.30
2022-12-01T02:31:57.000Z,92.20
2022-12-01T02:41:57.000Z,90.90
2022-12-01T02:51:57.000Z,93.60
2022-12-01T03:01:57.000Z,102.30
2022-12-01T03:11:57.000Z,98.80
2022-12-01T03:21:57.000Z,104.80
2022-12-01T03:31:57.000Z,101.00
2022-12-01T03:41:57.000Z,101.00
2022-12-01T03:51:56.000Z,99.50
2022-12-01T04:01:56.000Z,92.30
2022-12-01T04:11:56.000Z,88.20
2022-12-01T04:21:56.000Z,94.30
2022-12-01T04:31:56.000Z,91.90
2022-12-01T04:41:56.000Z,85.40
2022-12-01T04:51:56.000Z,85.00
2022-12-01T05:01:56.000Z,88.60
2022-12-01T05:11:56.000Z,89.20
2022-12-01T05:21:56.000Z,82.50
2022-12-01T05:31:56.000Z,77.10
2022-12-01T05:41:55.000Z,80.90
2022-12-01T05:51:55.000Z,76.30
2022-12-01T06:01:55.000Z,75.90
2022-12-01T06:11:55.000Z,75.10
2022-12-01T06:21:55.000Z,80.80
2022-12-01T06:31:55.000Z,80.40
2022-12-01T06:41:55.000Z,83.80
2022-12-01T06:51:55.000Z,75.80
2022-12-01T07:01:55.000Z,70.60
2022-12-01T07:11:55.000Z,70.30
2022-12-01T07:21:55.000Z,74.10
2022-12-01T07:31:54.000Z,73.40
2022-12-01T07:41:54.000Z,70.90
2022-12-01T07:51:54.000Z,70.00
2022-12-01T08:01:54.000Z,74.00
2022-12-01T08:11:54.000Z,69.30
2022-12-01T08:21:54.000Z,73.00
2022-12-01T08:31:54.000Z,68.30
2022-12-01T08:41:54.000Z,63.20
2022-12-01T08:51:54.000Z,59.80
2022-12-01T08:51:54.000Z,59.80
2022-12-01T09:01:54.000Z,61.30
2022-12-01T09:11:54.000Z,62.50
2022-12-01T09:21:53.000Z,58.20
2022-12-01T09:31:53.000Z,50.60
2022-12-01T09:41:53.000Z,50.50
2022-12-01T09:51:53.000Z,51.20
2022-12-01T10:01:53.000Z,76.90
2022-12-01T10:11:53.000Z,70.70
2022-12-01T10:21:53.000Z,73.30
2022-12-01T10:31:53.000Z,68.80
2022-12-01T10:41:53.000Z,75.10
2022-12-01T10:51:53.000Z,82.20
2022-12-01T11:01:52.000Z,73.10
2022-12-01T11:11:52.000Z,71.10
2022-12-01T11:21:52.000Z,72.80
2022-12-01T11:31:52.000Z,74.00
2022-12-01T11:41:52.000Z,79.00
2022-12-01T11:51:52.000Z,75.90
2022-12-01T12:01:52.000Z,78.30
2022-12-01T12:11:52.000Z,84.30
2022-12-01T12:21:52.000Z,90.80
2022-12-01T12:31:52.000Z,90.90
2022-12-01T12:41:52.000Z,85.60
2022-12-01T12:51:51.000Z,85.10
2022-12-01T13:01:51.000Z,82.90
2022-12-01T13:11:51.000Z,81.50
2022-12-01T13:21:51.000Z,78.20
2022-12-01T13:31:51.000Z,77.90
2022-12-01T13:41:51.000Z,81.90
2022-12-01T13:51:51.000Z,82.30
2022-12-01T14:01:51.000Z,82.00
2022-12-01T14:11:51.000Z,81.70
2022-12-01T14:21:51.000Z,82.50
2022-12-01T14:31:50.000Z,84.20
2022-12-01T14:41:50.000Z,82.70
2022-12-01T14:51:50.000Z,80.80
2022-12-01T15:01:50.000Z,84.40
2022-12-01T15:11:50.000Z,85.30
2022-12-01T15:21:50.000Z,83.60
2022-12-01T15:31:50.000Z,83.30
2022-12-01T15:41:50.000Z,78.50
2022-12-01T15:51:50.000Z,77.50
2022-12-01T16:01:50.000Z,76.00
2022-12-01T16:11:50.000Z,78.30
2022-12-01T16:21:49.000Z,80.70
2022-12-01T16:21:49.000Z,80.70
2022-12-01T16:31:49.000Z,78.90
2022-12-01T16:41:49.000Z,82.60
2022-12-01T16:51:49.000Z,81.80
2022-12-01T17:01:49.000Z,81.90
2022-12-01T17:11:49.000Z,80.40
2022-12-01T17:21:49.000Z,81.50
2022-12-01T17:31:49.000Z,83.70
2022-12-01T17:41:49.000Z,85.10
2022-12-01T17:51:49.000Z,83.90
2022-12-01T18:01:49.000Z,83.70
2022-12-01T18:11:48.000Z,82.10
2022-12-01T18:21:48.000Z,87.10
2022-12-01T18:31:48.000Z,90.10
2022-12-01T18:41:48.000Z,91.70
2022-12-01T18:51:48.000Z,90.90
2022-12-01T19:01:48.000Z,91.00
2022-12-01T19:11:48.000Z,91.10
2022-12-01T19:21:48.000Z,93.40
2022-12-01T19:31:48.000Z,94.30
2022-12-01T19:41:48.000Z,95.40
2022-12-01T19:51:48.000Z,95.00
2022-12-01T20:01:47.000Z,99.90
2022-12-01T20:11:47.000Z,98.20
2022-12-01T20:21:47.000Z,103.40
2022-12-01T20:31:47.000Z,100.90
2022-12-01T20:41:47.000Z,110.40
2022-12-01T21:07:03.000Z,105.70
2022-12-01T21:07:03.000Z,106.20
2022-12-01T21:17:03.000Z,104.40
2022-12-01T21:42:20.000Z,101.20
2022-12-01T21:42:20.000Z,103.90
2022-12-01T21:52:20.000Z,104.00
2022-12-01T22:02:20.000Z,106.60
2022-12-01T22:12:20.000Z,103.00
2022-12-01T22:22:20.000Z,99.70
2022-12-01T22:32:20.000Z,98.10
2022-12-01T22:42:19.000Z,94.50
2022-12-01T22:52:19.000Z,101.40
2022-12-01T23:02:19.000Z,97.60
2022-12-01T23:12:19.000Z,96.50
2022-12-01T23:22:19.000Z,91.90
2022-12-01T23:32:19.000Z,91.80
2022-12-01T23:42:19.000Z,92.20
2022-12-01T23:52:19.000Z,86.50
